Time;durP1;ratioP1;P1;durP2;ratioP2;P2;SDS_P1;SDS_P2;PMS_P1;PMS_P2;Temp;Humidity;BMP_temperature;BMP_pressure;BME280_temperature;BME280_humidity;BME280_pressure;Samples;Min_cycle;Max_cycle;Signal;HPM_P1;HPM_P2
2022/09/19 00:01:31;;;;;;;1.10;0.60;;;;;;;13.72;44.98;99667.75;3144608;28;20135;-59
2022/09/19 00:03:02;;;;;;;1.58;0.60;;;;;;;13.73;45.30;99666.84;3144401;28;20048;-58
2022/09/19 00:04:34;;;;;;;0.93;0.70;;;;;;;13.78;45.21;99671.78;3144013;28;20432;-60
2022/09/19 00:06:06;;;;;;;1.75;0.70;;;;;;;13.80;45.32;99662.91;3144753;28;20048;-58
2022/09/19 00:07:37;;;;;;;4.05;1.25;;;;;;;13.83;45.32;99667.09;3144532;28;20049;-58
2022/09/19 00:09:11;;;;;;;1.48;0.68;;;;;;;13.86;45.13;99664.31;3144394;28;20433;-58
2022/09/19 00:10:43;;;;;;;3.45;0.60;;;;;;;13.78;45.18;99648.22;3145896;28;20090;-59
2022/09/19 00:12:15;;;;;;;1.45;0.73;;;;;;;13.89;45.13;99667.56;3147276;28;20136;-58
2022/09/19 00:13:48;;;;;;;1.10;0.50;;;;;;;13.90;45.11;99665.78;3146853;28;20048;-58
2022/09/19 00:15:22;;;;;;;1.08;0.68;;;;;;;13.92;45.03;99666.53;3146994;28;20044;-58
2022/09/19 00:16:57;;;;;;;1.30;0.45;;;;;;;13.94;45.21;99671.69;3146770;28;20076;-58
2022/09/19 00:18:28;;;;;;;0.70;0.50;;;;;;;13.92;45.48;99668.31;3147068;28;20139;-58
2022/09/19 00:20:00;;;;;;;1.00;0.47;;;;;;;13.94;45.42;99674.31;3146577;28;20068;-58
2022/09/19 00:21:33;;;;;;;2.65;0.40;;;;;;;13.95;45.24;99668.13;3146807;28;20052;-58
2022/09/19 00:24:54;;;;;;;0.70;0.40;;;;;;;13.94;45.15;99669.09;3146955;28;20506;-58
2022/09/19 00:26:25;;;;;;;0.80;0.60;;;;;;;13.94;45.20;99669.09;3146686;28;20064;-59
2022/09/19 00:27:57;;;;;;;1.58;0.90;;;;;;;13.94;45.33;99669.91;3146461;28;20214;-59
2022/09/19 00:29:28;;;;;;;2.30;0.50;;;;;;;13.93;45.09;99675.22;3146701;28;20049;-59
2022/09/19 00:31:02;;;;;;;2.17;0.63;;;;;;;13.90;45.02;99671.03;3146647;28;20044;-59
2022/09/19 00:32:34;;;;;;;2.83;0.60;;;;;;;13.92;45.05;99668.31;3146143;28;20048;-58
2022/09/19 00:34:06;;;;;;;1.85;0.40;;;;;;;13.91;45.06;99669.28;3145814;28;20048;-58
2022/09/19 00:35:38;;;;;;;1.23;0.50;;;;;;;13.92;45.11;99673.56;3142958;28;20131;-59
2022/09/19 00:37:11;;;;;;;1.42;0.60;;;;;;;13.92;44.89;99671.78;3146718;28;20119;-59
2022/09/19 00:38:44;;;;;;;1.33;0.68;;;;;;;13.93;44.73;99672.63;3146518;28;20052;-58
2022/09/19 00:40:16;;;;;;;0.55;0.40;;;;;;;13.91;44.74;99669.28;3146268;28;20139;-58
2022/09/19 00:41:48;;;;;;;0.75;0.70;;;;;;;13.93;45.02;99672.63;3146530;28;20086;-59
2022/09/19 00:43:21;;;;;;;1.70;0.57;;;;;;;13.92;44.93;99673.56;3146799;28;20048;-58
2022/09/19 00:44:59;;;;;;;1.50;0.65;;;;;;;13.92;44.83;99666.53;3145990;28;20060;-59
2022/09/19 00:46:34;;;;;;;1.00;0.50;;;;;;;13.91;44.57;99669.28;3146338;28;20045;-58
2022/09/19 00:48:05;;;;;;;0.90;0.40;;;;;;;13.90;44.57;99665.78;3146477;28;20434;-58
2022/09/19 00:49:45;;;;;;;0.82;0.43;;;;;;;13.89;44.89;99657.09;3146289;28;20056;-59
2022/09/19 00:51:23;;;;;;;0.93;0.40;;;;;;;13.91;45.04;99664.88;3147759;28;20064;-59
2022/09/19 00:52:59;;;;;;;1.42;0.50;;;;;;;13.89;44.62;99666.72;3145569;28;20052;-59
2022/09/19 00:54:34;;;;;;;0.75;0.30;;;;;;;13.86;44.73;99662.53;3146317;28;20139;-59
2022/09/19 00:56:06;;;;;;;1.13;0.40;;;;;;;13.82;44.97;99663.66;3146391;28;20101;-58
2022/09/19 00:57:48;;;;;;;0.75;0.40;;;;;;;13.81;44.92;99653.25;3146627;28;20079;-59
2022/09/19 00:59:23;;;;;;;3.95;0.60;;;;;;;13.75;45.31;99656.25;3146264;28;20053;-59
2022/09/19 01:00:56;;;;;;;1.48;0.70;;;;;;;13.69;45.13;99654.84;3146539;28;20079;-59
2022/09/19 01:02:29;;;;;;;1.27;0.50;;;;;;;13.67;45.69;99659.34;3146361;28;20091;-59
2022/09/19 01:04:02;;;;;;;2.95;0.50;;;;;;;13.69;45.36;99660.06;3146523;28;20502;-59
2022/09/19 01:05:44;;;;;;;1.70;0.40;;;;;;;13.69;45.36;99657.47;3141504;28;20140;-59
2022/09/19 01:07:26;;;;;;;2.97;1.02;;;;;;;13.70;45.60;99660.94;3146411;28;20317;-59
2022/09/19 01:09:12;;;;;;;2.13;0.52;;;;;;;13.69;45.64;99652.22;3146301;28;20510;-59
2022/09/19 01:10:59;;;;;;;1.00;0.52;;;;;;;13.67;45.80;99653.28;3146330;28;20084;-59
2022/09/19 01:12:46;;;;;;;2.80;0.70;;;;;;;13.59;46.36;99649.34;3146255;28;20052;-59
2022/09/19 01:14:31;;;;;;;2.92;0.80;;;;;;;13.51;46.33;99651.56;3146161;28;20483;-59
2022/09/19 01:16:06;;;;;;;2.38;1.13;;;;;;;13.43;46.64;99662.50;3146281;28;20052;-59
2022/09/19 01:17:46;;;;;;;0.98;0.60;;;;;;;13.35;46.84;99656.88;3146254;28;20056;-60
2022/09/19 01:19:35;;;;;;;8.57;1.50;;;;;;;13.29;47.04;99646.78;3146231;28;20044;-60
2022/09/19 01:23:36;;;;;;;0.95;0.60;;;;;;;13.13;48.27;99657.25;3145970;28;20124;-60
2022/09/19 01:25:17;;;;;;;1.88;0.70;;;;;;;13.03;48.33;99650.88;3146004;28;20076;-58
2022/09/19 01:27:06;;;;;;;3.38;1.20;;;;;;;12.95;48.72;99656.56;3139787;28;20070;-60
2022/09/19 01:28:43;;;;;;;2.28;0.70;;;;;;;12.88;48.63;99652.59;3140742;28;20106;-60
2022/09/19 01:30:16;;;;;;;1.42;0.60;;;;;;;12.87;49.11;99657.91;3144727;28;20055;-60
2022/09/19 01:31:53;;;;;;;1.13;0.60;;;;;;;12.88;48.67;99654.34;3146167;28;20048;-60
2022/09/19 01:33:25;;;;;;;2.00;0.52;;;;;;;12.78;49.31;99654.03;3140201;28;20510;-60
2022/09/19 01:35:02;;;;;;;4.07;0.60;;;;;;;12.78;49.15;99661.88;3143334;28;20629;-60
2022/09/19 01:36:39;;;;;;;1.67;1.00;;;;;;;12.73;49.37;99659.53;3145748;28;20139;-60
2022/09/19 01:38:14;;;;;;;1.38;0.80;;;;;;;12.62;50.04;99659.28;3146254;28;20056;-60
2022/09/19 01:39:49;;;;;;;2.97;0.77;;;;;;;12.62;49.97;99663.66;3145638;28;20048;-60
2022/09/19 01:41:21;;;;;;;0.70;0.50;;;;;;;12.66;49.82;99657.31;3145908;28;20048;-60
2022/09/19 01:42:56;;;;;;;1.85;0.80;;;;;;;12.69;49.82;99659.78;3146059;28;20079;-60
2022/09/19 01:44:31;;;;;;;0.70;0.55;;;;;;;12.70;49.52;99657.06;3144827;28;20048;-60
2022/09/19 01:46:10;;;;;;;1.35;0.50;;;;;;;12.72;49.48;99662.22;3145526;28;20456;-60
2022/09/19 01:47:53;;;;;;;2.42;0.50;;;;;;;12.75;49.47;99654.22;3144895;28;20059;-60
2022/09/19 01:49:30;;;;;;;;;;;;;;;12.73;49.33;99666.53;3144704;28;20078;-60
2022/09/19 01:51:21;;;;;;;1.05;0.50;;;;;;;12.74;49.50;99655.13;3151356;28;20447;-60
2022/09/19 01:53:05;;;;;;;0.50;0.47;;;;;;;12.75;49.25;99656.84;3144686;28;20071;-60
2022/09/19 01:54:49;;;;;;;0.98;0.57;;;;;;;12.74;49.25;99653.34;3144936;28;20040;-60
2022/09/19 01:56:29;;;;;;;1.60;0.80;;;;;;;12.74;49.40;99647.28;3137182;28;20438;-60
2022/09/19 01:58:05;;;;;;;2.17;0.60;;;;;;;12.80;48.92;99659.16;3139364;28;20491;-60
2022/09/19 01:59:52;;;;;;;1.95;0.60;;;;;;;12.82;48.91;99660.78;3142596;28;20452;-60
2022/09/19 02:01:33;;;;;;;1.92;0.65;;;;;;;12.84;48.76;99653.69;3139923;28;20166;-60
2022/09/19 02:03:18;;;;;;;1.60;0.70;;;;;;;12.86;48.96;99657.03;3144788;28;20044;-60
2022/09/19 02:04:58;;;;;;;3.60;0.60;;;;;;;12.90;49.01;99655.97;3144741;28;20088;-58
2022/09/19 02:06:42;;;;;;;1.05;0.70;;;;;;;12.92;48.71;99655.84;3144796;28;20436;-59
2022/09/19 02:08:21;;;;;;;3.42;0.70;;;;;;;12.94;48.73;99657.47;3145401;28;20049;-59
2022/09/19 02:10:00;;;;;;;1.00;0.45;;;;;;;12.93;48.48;99658.41;3142357;28;20057;-58
2022/09/19 02:11:32;;;;;;;2.65;0.85;;;;;;;12.96;48.43;99652.16;3143057;28;20056;-59
2022/09/19 02:13:08;;;;;;;3.80;0.70;;;;;;;12.98;48.66;99658.97;3145598;28;20102;-58
2022/09/19 02:14:47;;;;;;;2.22;0.60;;;;;;;13.01;48.72;99659.72;3139243;28;20076;-58
2022/09/19 02:16:25;;;;;;;0.70;0.55;;;;;;;12.98;48.63;99658.97;3145126;28;20501;-59
2022/09/19 02:18:02;;;;;;;3.80;0.85;;;;;;;13.00;48.75;99663.28;3145694;28;20114;-59
2022/09/19 02:19:40;;;;;;;1.60;0.73;;;;;;;12.99;48.83;99659.81;3140575;28;20065;-59
2022/09/19 02:21:20;;;;;;;2.58;0.90;;;;;;;13.00;48.74;99665.88;3145164;28;20048;-59
2022/09/19 02:22:56;;;;;;;0.75;0.45;;;;;;;13.00;48.59;99671.94;3145007;28;20044;-59
2022/09/19 02:24:32;;;;;;;1.73;0.65;;;;;;;12.85;48.79;99642.31;3144919;28;20064;-59
2022/09/19 02:26:09;;;;;;;1.38;0.60;;;;;;;12.95;48.42;99669.63;3145498;28;20491;-59
2022/09/19 02:27:44;;;;;;;1.25;0.70;;;;;;;12.95;48.74;99669.63;3145220;28;20129;-60
2022/09/19 02:29:20;;;;;;;1.77;0.93;;;;;;;12.91;48.33;99659.41;3144840;28;20557;-60
2022/09/19 02:30:52;;;;;;;2.03;0.95;;;;;;;12.88;48.25;99663.03;3144951;28;20075;-60
2022/09/19 02:32:24;;;;;;;2.33;0.88;;;;;;;12.84;48.45;99656.31;3145065;28;20136;-59
2022/09/19 02:34:00;;;;;;;3.47;1.08;;;;;;;12.77;48.30;99660.19;3138821;28;20046;-60
2022/09/19 02:35:39;;;;;;;3.05;0.68;;;;;;;12.78;48.30;99659.28;3145059;28;20088;-59
2022/09/19 02:37:21;;;;;;;4.10;0.75;;;;;;;12.70;48.60;99661.47;3144758;28;20053;-59
2022/09/19 02:39:00;;;;;;;1.92;0.80;;;;;;;12.61;48.57;99662.81;3144247;28;20052;-58
2022/09/19 02:40:39;;;;;;;5.88;0.63;;;;;;;12.59;48.89;99672.50;3143947;28;20146;-59
2022/09/19 02:42:18;;;;;;;7.68;0.90;;;;;;;12.50;49.03;99665.19;3144966;28;20510;-59
2022/09/19 02:43:56;;;;;;;11.35;1.63;;;;;;;12.49;48.89;99668.72;3142940;28;20048;-59
2022/09/19 02:45:33;;;;;;;3.70;0.90;;;;;;;12.48;49.13;99669.63;3141881;28;20091;-59
2022/09/19 02:47:12;;;;;;;2.45;0.93;;;;;;;12.48;48.80;99674.88;3141720;28;20044;-58
2022/09/19 02:48:53;;;;;;;5.13;1.08;;;;;;;12.48;48.78;99670.50;3144666;28;20701;-58
2022/09/19 02:50:29;;;;;;;4.47;0.93;;;;;;;12.44;48.92;99674.19;3148907;28;20613;-58
2022/09/19 02:52:06;;;;;;;4.97;1.00;;;;;;;12.43;49.01;99669.06;3140376;28;20098;-58
2022/09/19 02:53:43;;;;;;;2.92;0.90;;;;;;;12.44;48.96;99671.59;3144613;28;20056;-58
2022/09/19 02:55:22;;;;;;;2.40;0.88;;;;;;;12.43;48.51;99671.69;3139097;28;20060;-58
2022/09/19 02:56:58;;;;;;;4.55;0.95;;;;;;;12.43;48.75;99676.91;3144560;28;20047;-58
2022/09/19 02:58:36;;;;;;;6.47;0.98;;;;;;;12.42;48.56;99680.41;3138461;28;20049;-58
2022/09/19 03:00:09;;;;;;;1.80;0.90;;;;;;;12.43;48.35;99680.34;3138518;28;20044;-58
2022/09/19 03:01:44;;;;;;;3.72;1.05;;;;;;;12.42;48.34;99676.06;3144663;28;20434;-59
2022/09/19 03:05:19;;;;;;;6.38;1.02;;;;;;;12.38;48.33;99682.38;3139878;28;20048;-59
2022/09/19 03:06:58;;;;;;;2.58;0.90;;;;;;;12.40;48.69;99677.91;3144669;28;20080;-59
2022/09/19 03:08:36;;;;;;;6.35;1.33;;;;;;;12.38;48.65;99676.31;3144735;28;20050;-59
2022/09/19 03:10:12;;;;;;;6.75;1.08;;;;;;;12.40;48.26;99677.06;3144790;28;20117;-58
2022/09/19 03:11:52;;;;;;;3.67;0.85;;;;;;;12.41;48.36;99679.59;3144734;28;20077;-59
2022/09/19 03:13:25;;;;;;;5.35;1.35;;;;;;;12.43;48.60;99677.75;3145150;28;20049;-59
2022/09/19 03:14:58;;;;;;;3.42;0.93;;;;;;;12.42;48.18;99677.81;3144434;28;20109;-59
2022/09/19 03:16:35;;;;;;;7.32;1.23;;;;;;;12.36;48.63;99681.59;3138455;28;20059;-59
2022/09/19 03:18:09;;;;;;;2.55;1.08;;;;;;;12.32;48.37;99674.88;3144910;28;20143;-59
2022/09/19 03:19:46;;;;;;;1.63;0.90;;;;;;;12.25;48.75;99681.34;3142299;28;20055;-58
2022/09/19 03:21:21;;;;;;;3.45;0.88;;;;;;;12.19;48.92;99684.31;3144683;28;20059;-59
2022/09/19 03:22:54;;;;;;;3.97;0.88;;;;;;;12.12;48.82;99682.94;3144646;28;20051;-59
2022/09/19 03:24:27;;;;;;;3.13;1.10;;;;;;;12.04;49.03;99678.97;3144806;28;20080;-59
2022/09/19 03:26:00;;;;;;;3.95;1.10;;;;;;;12.03;48.74;99669.44;3144678;28;20326;-59
2022/09/19 03:27:32;;;;;;;4.90;0.90;;;;;;;12.03;49.14;99674.66;3144702;28;20063;-59
2022/09/19 03:29:06;;;;;;;4.65;1.20;;;;;;;12.09;48.85;99672.66;3144628;28;20437;-60
2022/09/19 03:30:38;;;;;;;6.30;1.15;;;;;;;12.10;48.80;99672.59;3144519;28;20068;-59
2022/09/19 03:32:10;;;;;;;2.78;1.33;;;;;;;12.11;48.70;99679.47;3144782;28;20056;-59
2022/09/19 03:33:42;;;;;;;4.18;0.90;;;;;;;12.12;48.68;99682.94;3141232;28;20052;-59
2022/09/19 03:35:16;;;;;;;2.42;0.95;;;;;;;12.10;48.72;99675.19;3144846;28;20087;-60
2022/09/19 03:36:48;;;;;;;4.82;0.98;;;;;;;12.05;49.00;99678.03;3144627;28;20059;-58
2022/09/19 03:38:21;;;;;;;6.28;0.85;;;;;;;12.04;48.77;99681.59;3144786;28;20136;-59
2022/09/19 03:39:53;;;;;;;4.13;0.80;;;;;;;12.06;48.83;99674.50;3144663;28;20070;-58
2022/09/19 03:41:24;;;;;;;3.58;1.58;;;;;;;12.07;48.59;99672.75;3142958;28;20499;-59
2022/09/19 03:42:56;;;;;;;3.40;1.45;;;;;;;12.03;48.77;99677.25;3144661;28;20048;-58
2022/09/19 03:44:27;;;;;;;5.43;1.63;;;;;;;11.98;48.58;99673.22;3145005;28;20041;-59
2022/09/19 03:45:59;;;;;;;4.05;1.83;;;;;;;11.93;48.58;99668.25;3146787;28;20053;-59
2022/09/19 03:47:31;;;;;;;4.85;1.00;;;;;;;11.88;48.71;99670.25;3147444;28;20460;-59
2022/09/19 03:49:04;;;;;;;3.45;1.20;;;;;;;11.84;48.78;99676.53;3147199;28;20044;-59
2022/09/19 03:50:37;;;;;;;2.35;0.90;;;;;;;11.84;48.79;99673.94;3148998;28;20505;-59
2022/09/19 03:52:09;;;;;;;2.22;0.90;;;;;;;11.86;48.90;99669.50;3147515;28;20049;-59
2022/09/19 03:53:41;;;;;;;2.33;1.00;;;;;;;11.86;49.12;99676.47;3147359;28;20049;-59
2022/09/19 03:55:12;;;;;;;1.70;1.15;;;;;;;11.83;49.11;99675.69;3147254;28;20175;-58
2022/09/19 03:56:44;;;;;;;3.80;1.15;;;;;;;11.84;49.42;99676.53;3146729;28;20052;-59
2022/09/19 03:58:17;;;;;;;2.03;1.17;;;;;;;11.81;49.33;99677.53;3147310;28;20440;-59
2022/09/19 03:59:49;;;;;;;5.85;1.45;;;;;;;11.68;49.48;99650.38;3146743;28;20139;-58
2022/09/19 04:01:21;;;;;;;2.28;1.25;;;;;;;11.82;49.66;99679.22;3147048;28;20044;-59
2022/09/19 04:02:53;;;;;;;3.00;1.45;;;;;;;11.82;49.41;99674.00;3147059;28;20088;-59
2022/09/19 04:04:25;;;;;;;4.50;1.30;;;;;;;11.87;49.39;99671.19;3146618;28;20135;-59
2022/09/19 04:05:57;;;;;;;6.90;1.48;;;;;;;11.90;49.46;99678.00;3147206;28;20139;-59
2022/09/19 04:07:29;;;;;;;3.35;1.40;;;;;;;11.92;49.58;99678.75;3147008;28;20603;-59
2022/09/19 04:09:01;;;;;;;3.30;1.40;;;;;;;11.94;49.64;99680.38;3146130;28;20057;-59
2022/09/19 04:10:33;;;;;;;4.60;1.20;;;;;;;11.93;49.53;99668.25;3146108;28;20056;-59
2022/09/19 04:12:05;;;;;;;1.92;1.05;;;;;;;11.99;49.31;99678.38;3146218;28;21020;-59
2022/09/19 04:13:38;;;;;;;7.50;1.50;;;;;;;12.01;49.76;99675.69;3145712;28;20052;-59
2022/09/19 04:15:10;;;;;;;4.38;1.30;;;;;;;12.00;49.55;99674.81;3143900;28;20131;-59
2022/09/19 04:16:42;;;;;;;6.38;1.30;;;;;;;12.02;49.87;99680.81;3145743;28;20122;-59
2022/09/19 04:18:14;;;;;;;5.40;1.70;;;;;;;12.02;49.81;99683.41;3146293;28;20048;-59
2022/09/19 04:19:48;;;;;;;3.35;1.67;;;;;;;12.04;49.66;99676.38;3146538;28;20056;-59
2022/09/19 04:21:21;;;;;;;6.75;2.10;;;;;;;12.06;49.57;99678.88;3145595;28;20052;-59
2022/09/19 04:22:53;;;;;;;4.07;1.60;;;;;;;12.07;49.75;99685.81;3145570;28;20048;-59
2022/09/19 04:24:26;;;;;;;9.25;1.70;;;;;;;12.08;49.89;99684.88;3141985;28;20441;-60
2022/09/19 04:26:00;;;;;;;4.82;1.55;;;;;;;12.07;49.43;99676.19;3145973;28;20048;-59
2022/09/19 04:27:30;;;;;;;5.85;1.67;;;;;;;12.11;49.56;99681.25;3145943;28;20067;-60
2022/09/19 04:29:03;;;;;;;8.85;1.77;;;;;;;12.10;49.58;99679.53;3145463;28;20463;-59
2022/09/19 04:30:36;;;;;;;9.68;1.90;;;;;;;12.11;49.43;99681.25;3145658;28;20100;-59
2022/09/19 04:32:08;;;;;;;;;;;;;;;12.09;49.69;99683.94;3146108;28;20052;-59
2022/09/19 04:33:40;;;;;;;7.13;1.65;;;;;;;12.11;49.56;99681.25;3145654;28;19924;-59
2022/09/19 04:35:12;;;;;;;5.93;1.38;;;;;;;12.10;49.34;99679.53;3145422;28;20121;-60
2022/09/19 04:36:48;;;;;;;7.60;1.67;;;;;;;12.13;49.57;99674.19;3146217;28;20052;-60
2022/09/19 04:38:20;;;;;;;5.10;1.20;;;;;;;12.14;49.33;99686.31;3145565;28;20044;-59
2022/09/19 04:39:52;;;;;;;3.42;1.50;;;;;;;12.15;49.72;99677.53;3145521;28;20080;-60
2022/09/19 04:41:24;;;;;;;7.60;1.70;;;;;;;12.16;49.42;99679.25;3145483;28;20044;-59
2022/09/19 04:42:56;;;;;;;2.60;1.20;;;;;;;12.18;49.52;99680.00;3145664;28;20505;-60
2022/09/19 04:44:29;;;;;;;5.15;1.58;;;;;;;12.19;49.30;99679.09;3145705;28;20048;-58
2022/09/19 04:46:01;;;;;;;3.63;1.58;;;;;;;12.18;49.46;99672.16;3145839;28;20215;-59
2022/09/19 04:47:33;;;;;;;4.07;2.08;;;;;;;12.20;49.20;99675.53;3145457;28;20045;-60
2022/09/19 04:49:05;;;;;;;6.15;1.48;;;;;;;12.21;49.60;99675.44;3146102;28;20052;-59
2022/09/19 04:50:38;;;;;;;6.80;1.30;;;;;;;12.22;49.06;99673.69;3143960;28;20529;-58
2022/09/19 04:52:12;;;;;;;2.08;1.45;;;;;;;12.23;49.26;99670.97;3146057;28;20052;-59
2022/09/19 04:53:44;;;;;;;4.40;1.73;;;;;;;12.25;49.23;99673.53;3145149;28;20087;-61
2022/09/19 04:55:16;;;;;;;4.57;1.73;;;;;;;12.27;49.19;99675.13;3146417;28;20048;-58
2022/09/19 04:56:48;;;;;;;4.55;1.70;;;;;;;12.31;49.44;99677.56;3144191;28;20557;-59
2022/09/19 04:58:20;;;;;;;7.53;1.80;;;;;;;12.33;49.07;99683.53;3146171;28;20052;-59
2022/09/19 04:59:54;;;;;;;3.05;1.67;;;;;;;12.35;49.19;99679.91;3141563;28;20538;-59
2022/09/19 05:01:27;;;;;;;7.47;3.33;;;;;;;12.38;49.42;99681.53;3145792;28;20062;-59
2022/09/19 05:02:58;;;;;;;4.72;1.52;;;;;;;12.40;49.31;99685.75;3146197;28;20445;-59
2022/09/19 05:04:30;;;;;;;6.97;1.67;;;;;;;12.42;49.53;99686.53;3146406;28;20056;-60
2022/09/19 05:06:04;;;;;;;5.38;1.48;;;;;;;12.43;49.41;99687.34;3146014;28;20056;-60
2022/09/19 05:07:37;;;;;;;5.00;1.60;;;;;;;12.46;49.40;99689.78;3146148;28;20114;-59
2022/09/19 05:09:11;;;;;;;5.80;1.30;;;;;;;12.48;49.09;99685.31;3146031;28;20441;-59
2022/09/19 05:10:43;;;;;;;;;;;;;;;12.46;49.10;99688.03;3144665;28;20076;-59
2022/09/19 05:12:15;;;;;;;4.97;1.25;;;;;;;12.49;49.42;99690.47;3146816;28;19920;-59
2022/09/19 05:13:48;;;;;;;4.32;1.23;;;;;;;12.53;48.93;99691.13;3146151;28;20063;-59
2022/09/19 05:15:20;;;;;;;5.90;1.30;;;;;;;12.56;48.99;99698.78;3145363;28;20448;-60
2022/09/19 05:16:52;;;;;;;3.90;1.35;;;;;;;12.58;48.95;99703.94;3144975;28;20059;-61
2022/09/19 05:18:24;;;;;;;8.75;1.73;;;;;;;12.61;49.28;99693.34;3145832;28;20106;-60
2022/09/19 05:19:56;;;;;;;11.90;3.90;;;;;;;12.64;49.01;99696.63;3141087;28;20102;-61
2022/09/19 05:21:28;;;;;;;9.55;4.40;;;;;;;12.67;48.60;99699.06;3146033;28;20490;-61
2022/09/19 05:23:00;;;;;;;9.23;2.65;;;;;;;12.69;48.65;99691.97;3145687;28;20445;-61
2022/09/19 05:24:32;;;;;;;7.70;2.25;;;;;;;12.70;48.80;99692.81;3145990;28;20060;-59
2022/09/19 05:26:05;;;;;;;6.05;2.10;;;;;;;12.68;48.50;99690.28;3146272;28;20048;-60
2022/09/19 05:27:38;;;;;;;7.97;1.75;;;;;;;12.70;48.57;99692.81;3145836;28;20050;-60
2022/09/19 05:29:10;;;;;;;3.95;1.38;;;;;;;12.73;48.60;99695.25;3146098;28;20049;-60
2022/09/19 05:30:49;;;;;;;7.60;1.17;;;;;;;12.74;48.16;99697.78;3146121;28;20052;-59
2022/09/19 05:32:21;;;;;;;3.42;1.30;;;;;;;12.77;48.41;99696.75;3138761;28;20520;-60
2022/09/19 05:33:53;;;;;;;6.53;2.50;;;;;;;12.79;48.19;99697.53;3145280;28;20041;-60
2022/09/19 05:35:25;;;;;;;9.32;3.75;;;;;;;12.83;48.26;99692.97;3144102;28;20045;-59
2022/09/19 05:36:57;;;;;;;4.55;1.40;;;;;;;12.82;48.29;99689.53;3143871;28;20052;-59
2022/09/19 05:38:32;;;;;;;12.57;4.60;;;;;;;12.93;48.02;99696.75;3145954;28;20131;-59
2022/09/19 05:40:05;;;;;;;5.43;1.67;;;;;;;12.97;48.01;99701.72;3145630;28;20461;-60
2022/09/19 05:41:38;;;;;;;3.38;1.52;;;;;;;13.03;47.82;99697.09;3144756;28;20517;-59
2022/09/19 05:43:10;;;;;;;2.47;1.30;;;;;;;13.11;47.70;99697.50;3145811;28;20052;-59
2022/09/19 05:44:42;;;;;;;2.53;0.93;;;;;;;13.23;47.67;99693.34;3145403;28;20332;-59
2022/09/19 05:46:14;;;;;;;11.18;1.08;;;;;;;13.34;47.65;99697.03;3145906;28;20055;-60
2022/09/19 05:47:46;;;;;;;3.67;1.10;;;;;;;13.48;47.16;99705.84;3145963;28;20099;-58
2022/09/19 05:49:18;;;;;;;5.47;1.30;;;;;;;13.58;46.76;99697.38;3145823;28;20598;-58
2022/09/19 05:50:51;;;;;;;5.68;0.98;;;;;;;13.68;46.48;99695.03;3149945;28;20511;-58
2022/09/19 05:54:13;;;;;;;3.03;1.73;;;;;;;13.88;46.01;99704.31;3145798;28;20050;-58
2022/09/19 05:55:45;;;;;;;6.78;1.08;;;;;;;13.98;46.21;99701.97;3145545;28;20057;-58
2022/09/19 05:57:17;;;;;;;3.88;1.25;;;;;;;14.08;45.99;99703.97;3141162;28;20049;-58
2022/09/19 05:58:53;;;;;;;5.47;2.00;;;;;;;14.22;45.79;99710.09;3142478;28;20127;-58
2022/09/19 06:00:26;;;;;;;6.95;1.38;;;;;;;14.33;45.86;99705.06;3145069;28;20052;-58
2022/09/19 06:02:01;;;;;;;5.68;1.15;;;;;;;14.43;45.47;99708.78;3144493;28;20044;-58
2022/09/19 06:03:33;;;;;;;2.45;1.00;;;;;;;14.53;45.60;99703.84;3145148;28;20060;-59
2022/09/19 06:05:05;;;;;;;2.15;0.80;;;;;;;14.64;44.86;99706.63;3138120;28;20048;-59
2022/09/19 06:06:38;;;;;;;2.17;1.20;;;;;;;14.73;44.93;99700.81;3144492;28;20056;-60
2022/09/19 06:08:11;;;;;;;4.72;1.52;;;;;;;14.83;44.57;99701.03;3145312;28;20147;-60
2022/09/19 06:09:44;;;;;;;7.03;2.72;;;;;;;14.91;44.14;99705.81;3145432;28;20505;-61
2022/09/19 06:11:16;;;;;;;26.70;14.38;;;;;;;15.02;44.07;99711.19;3145457;28;20114;-60
2022/09/19 06:12:48;;;;;;;2.35;1.13;;;;;;;15.09;43.45;99714.25;3145380;28;20469;-59
2022/09/19 06:14:23;;;;;;;3.38;1.35;;;;;;;15.18;43.28;99711.88;3139989;28;20049;-59
2022/09/19 06:15:55;;;;;;;5.30;1.42;;;;;;;15.27;43.13;99713.06;3144932;28;20083;-59
2022/09/19 06:17:26;;;;;;;6.72;1.80;;;;;;;15.33;42.92;99717.88;3144872;28;20056;-58
2022/09/19 06:18:59;;;;;;;3.53;1.30;;;;;;;15.36;43.02;99701.09;3144815;28;20093;-58
2022/09/19 06:20:31;;;;;;;9.63;1.63;;;;;;;15.52;42.84;99714.88;3145042;28;20362;-58
2022/09/19 06:22:04;;;;;;;12.20;1.30;;;;;;;15.62;43.09;99715.13;3144978;28;20080;-59
2022/09/19 06:23:36;;;;;;;11.43;2.60;;;;;;;15.73;42.76;99714.41;3144737;28;20062;-59
2022/09/19 06:25:10;;;;;;;6.22;2.08;;;;;;;15.85;42.56;99710.94;3145184;28;20049;-58
2022/09/19 06:26:41;;;;;;;;;;;;;;;15.94;42.54;99715.56;3145555;28;20128;-58
2022/09/19 06:28:13;;;;;;;5.03;1.25;;;;;;;16.06;42.32;99721.75;3144794;28;19927;-59
2022/09/19 06:29:46;;;;;;;5.15;1.42;;;;;;;16.17;42.28;99718.38;3145011;28;20437;-58
2022/09/19 06:31:18;;;;;;;6.78;1.45;;;;;;;16.26;41.64;99715.13;3138570;28;20052;-59
2022/09/19 06:32:50;;;;;;;7.20;2.58;;;;;;;16.35;42.60;99719.72;3144858;28;20117;-58
2022/09/19 06:34:22;;;;;;;9.73;1.92;;;;;;;16.38;43.17;99716.88;3144883;28;20045;-58
2022/09/19 06:35:57;;;;;;;3.90;2.08;;;;;;;16.43;43.57;99720.03;3144854;28;20049;-59
2022/09/19 06:37:29;;;;;;;7.03;2.80;;;;;;;16.49;43.66;99722.22;3145177;28;20109;-58
2022/09/19 06:39:01;;;;;;;7.00;2.33;;;;;;;16.49;43.72;99724.84;3144890;28;20070;-58
2022/09/19 06:40:36;;;;;;;4.15;2.13;;;;;;;16.50;43.88;99723.88;3138223;28;20107;-58
2022/09/19 06:42:08;;;;;;;6.43;1.88;;;;;;;16.56;44.25;99723.50;3144394;28;20048;-57
2022/09/19 06:43:40;;;;;;;6.18;2.05;;;;;;;16.66;44.51;99720.19;3145222;28;20059;-59
2022/09/19 06:45:12;;;;;;;3.88;2.00;;;;;;;16.76;44.31;99718.59;3140000;28;20129;-60
2022/09/19 06:46:44;;;;;;;8.45;3.13;;;;;;;16.84;44.04;99729.41;3144749;28;20044;-58
2022/09/19 06:48:15;;;;;;;9.05;2.85;;;;;;;16.93;44.04;99723.47;3144738;28;20427;-59
2022/09/19 06:49:47;;;;;;;7.65;2.28;;;;;;;17.06;43.90;99729.50;3144329;28;20046;-58
2022/09/19 06:51:19;;;;;;;7.30;2.80;;;;;;;17.16;43.75;99727.06;3144207;28;20110;-59
2022/09/19 06:52:51;;;;;;;6.35;2.60;;;;;;;17.27;43.74;99719.22;3144408;28;20063;-58
2022/09/19 06:54:23;;;;;;;8.27;2.38;;;;;;;17.40;43.43;99719.16;3144066;28;20049;-58
2022/09/19 06:55:57;;;;;;;7.22;2.42;;;;;;;17.59;43.21;99720.38;3143665;28;20053;-58
2022/09/19 06:57:28;;;;;;;7.40;1.83;;;;;;;17.80;42.84;99721.41;3142129;28;20502;-58
2022/09/19 06:59:00;;;;;;;7.03;2.83;;;;;;;17.98;42.50;99719.16;3144693;28;20055;-59
2022/09/19 07:00:35;;;;;;;8.48;3.85;;;;;;;18.19;42.17;99720.16;3143911;28;20520;-60
2022/09/19 07:02:07;;;;;;;6.95;2.80;;;;;;;18.38;41.97;99711.63;3143612;28;20533;-62
2022/09/19 07:03:41;;;;;;;10.75;3.08;;;;;;;18.57;41.72;99711.00;3143795;28;20056;-60
2022/09/19 07:05:13;;;;;;;7.85;2.80;;;;;;;18.74;41.42;99717.59;3143798;28;20044;-61
2022/09/19 07:06:45;;;;;;;12.82;3.00;;;;;;;18.91;40.92;99715.41;3143497;28;20052;-61
2022/09/19 07:08:16;;;;;;;11.38;2.97;;;;;;;19.10;40.62;99713.75;3143252;28;20064;-59
2022/09/19 07:09:48;;;;;;;2.90;1.73;;;;;;;19.27;40.23;99712.38;3143369;28;20071;-59
2022/09/19 07:11:21;;;;;;;5.05;2.38;;;;;;;19.42;39.68;99714.72;3143586;28;20064;-59
2022/09/19 07:12:55;;;;;;;9.30;2.92;;;;;;;19.50;39.19;99707.00;3144031;28;20053;-59
2022/09/19 07:14:27;;;;;;;7.50;2.58;;;;;;;19.65;39.12;99711.00;3144165;28;20082;-59
2022/09/19 07:16:03;;;;;;;6.60;2.53;;;;;;;19.60;38.88;99693.84;3139733;28;20045;-60
2022/09/19 07:17:34;;;;;;;5.18;2.10;;;;;;;19.88;38.57;99702.94;3139730;28;20056;-59
2022/09/19 07:19:06;;;;;;;8.57;2.42;;;;;;;20.11;38.70;99698.31;3143803;28;20106;-61
2022/09/19 07:20:39;;;;;;;6.07;2.22;;;;;;;20.30;38.10;99700.19;3139446;28;20045;-62
2022/09/19 07:22:10;;;;;;;4.40;2.25;;;;;;;20.45;37.48;99694.41;3144387;28;20139;-61
2022/09/19 07:23:42;;;;;;;6.50;2.05;;;;;;;20.55;37.03;99699.75;3144718;28;20053;-62
2022/09/19 07:25:14;;;;;;;6.00;2.13;;;;;;;20.70;37.03;99702.00;3143391;28;20433;-62
2022/09/19 07:26:47;;;;;;;4.47;2.00;;;;;;;20.90;36.95;99701.06;3144575;28;20048;-62
2022/09/19 07:28:20;;;;;;;10.93;2.00;;;;;;;21.13;36.71;99699.00;3144465;28;20133;-64
2022/09/19 07:29:52;;;;;;;7.95;2.22;;;;;;;21.39;36.23;99690.50;3144468;28;20508;-63
2022/09/19 07:31:24;;;;;;;4.18;2.30;;;;;;;21.63;35.63;99698.00;3144651;28;20113;-63
2022/09/19 07:32:57;;;;;;;6.18;2.22;;;;;;;21.85;35.37;99689.69;3144574;28;20477;-63